Time,TemperatureF,DewpointF,PressureIn,WindDirection,WindDirectionDegrees,WindSpeedMPH,WindSpeedGustMPH,Humidity,HourlyPrecipIn,Conditions,Clouds,dailyrainin,SoftwareType,DateUTC
2013-05-01 00:02:00,49.7,30.8,30.29,SE,134,4.0,7.0,48,0.00,,---,0.00,VWS V14.01,2013-05-01 04:02:00,
2013-05-01 00:03:00,49.6,31.2,30.29,SSE,150,3.0,7.0,49,0.00,,---,0.00,VWS V14.01,2013-05-01 04:03:00,
2013-05-01 00:04:00,49.5,31.1,30.29,SE,131,3.0,7.0,49,0.00,,---,0.00,VWS V14.01,2013-05-01 04:04:00,
2013-05-01 00:09:00,49.1,30.8,30.29,SSE,156,3.0,4.0,49,0.00,,---,0.00,VWS V14.01,2013-05-01 04:09:00,
2013-05-01 00:10:00,49.1,30.8,30.29,SE,128,3.0,4.0,49,0.00,,---,0.00,VWS V14.01,2013-05-01 04:10:00,
2013-05-01 00:12:00,49.0,30.7,30.29,SE,143,4.0,4.0,49,0.00,,---,0.00,VWS V14.01,2013-05-01 04:12:00,
2013-05-01 00:17:00,48.7,30.9,30.29,ESE,114,3.0,5.0,50,0.00,,---,0.00,VWS V14.01,2013-05-01 04:17:00,
2013-05-01 00:22:00,48.7,30.9,30.29,ESE,122,4.0,5.0,50,0.00,,---,0.00,VWS V14.01,2013-05-01 04:22:00,
2013-05-01 00:27:00,48.7,30.9,30.30,ESE,114,3.0,5.0,50,0.00,,---,0.00,VWS V14.01,2013-05-01 04:27:00,
2013-05-01 00:32:00,48.7,30.9,30.30,ESE,117,0.0,4.0,50,0.00,,---,0.00,VWS V14.01,2013-05-01 04:32:00,
2013-05-01 00:37:00,48.3,30.5,30.30,ESE,118,0.0,1.0,50,0.00,,---,0.00,VWS V14.01,2013-05-01 04:37:00,
2013-05-01 00:42:00,47.9,30.2,30.30,SSE,150,1.0,1.0,50,0.00,,---,0.00,VWS V14.01,2013-05-01 04:42:00,
2013-05-01 00:47:00,47.9,30.2,30.30,East,98,2.0,2.0,50,0.00,,---,0.00,VWS V14.01,2013-05-01 04:47:00,
2013-05-01 00:52:00,48.1,30.4,30.30,ESE,115,1.0,4.0,50,0.00,,---,0.00,VWS V14.01,2013-05-01 04:52:00,
2013-05-01 00:57:00,47.9,30.2,30.30,ESE,103,3.0,4.0,50,0.00,,---,0.00,VWS V14.01,2013-05-01 04:57:00,
2013-05-01 01:02:00,47.6,30.9,30.30,ESE,103,3.0,4.0,52,0.00,,---,0.00,VWS V14.01,2013-05-01 05:02:00,
2013-05-01 01:07:00,47.5,30.8,30.30,ESE,121,2.0,4.0,52,0.00,,---,0.00,VWS V14.01,2013-05-01 05:07:00,
2013-05-01 01:12:00,47.5,30.8,30.31,East,101,2.0,4.0,52,0.00,,---,0.00,VWS V14.01,2013-05-01 05:12:00,
2013-05-01 01:17:00,47.1,30.4,30.31,ESE,102,2.0,5.0,52,0.00,,---,0.00,VWS V14.01,2013-05-01 05:17:00,
2013-05-01 01:21:00,46.8,31.0,30.31,East,99,2.0,6.0,54,0.00,,---,0.00,VWS V14.01,2013-05-01 05:21:00,
2013-05-01 01:27:00,46.7,30.5,30.31,ESE,108,3.0,6.0,53,0.00,,---,0.00,VWS V14.01,2013-05-01 05:27:00,
2013-05-01 01:32:00,46.6,30.4,30.31,East,91,1.0,5.0,53,0.00,,---,0.00,VWS V14.01,2013-05-01 05:32:00,
2013-05-01 01:37:00,46.5,30.3,30.31,SE,143,1.0,4.0,53,0.00,,---,0.00,VWS V14.01,2013-05-01 05:37:00,
2013-05-01 01:42:00,46.4,30.2,30.31,ESE,122,3.0,4.0,53,0.00,,---,0.00,VWS V14.01,2013-05-01 05:42:00,
2013-05-01 01:47:00,46.3,30.6,30.31,East,101,2.0,5.0,54,0.00,,---,0.00,VWS V14.01,2013-05-01 05:47:00,
2013-05-01 01:52:00,46.0,30.8,30.32,SE,124,3.0,4.0,55,0.00,,---,0.00,VWS V14.01,2013-05-01 05:52:00,
2013-05-01 01:57:00,45.9,30.7,30.31,ESE,107,3.0,7.0,55,0.00,,---,0.00,VWS V14.01,2013-05-01 05:57:00,
2013-05-01 02:02:00,45.7,30.5,30.32,SE,124,3.0,6.0,55,0.00,,---,0.00,VWS V14.01,2013-05-01 06:02:00,
2013-05-01 02:07:00,45.5,30.3,30.32,ESE,110,2.0,5.0,55,0.00,,---,0.00,VWS V14.01,2013-05-01 06:07:00,
2013-05-01 02:12:00,45.3,30.1,30.32,ESE,108,5.0,6.0,55,0.00,,---,0.00,VWS V14.01,2013-05-01 06:12:00,
2013-05-01 02:17:00,45.3,30.1,30.32,ESE,118,1.0,6.0,55,0.00,,---,0.00,VWS V14.01,2013-05-01 06:17:00,
2013-05-01 02:22:00,45.1,30.4,30.32,ESE,104,3.0,5.0,56,0.00,,---,0.00,VWS V14.01,2013-05-01 06:22:00,
2013-05-01 02:27:00,44.9,30.2,30.32,ESE,112,1.0,3.0,56,0.00,,---,0.00,VWS V14.01,2013-05-01 06:27:00,
2013-05-01 02:32:00,44.8,30.1,30.33,SE,137,1.0,2.0,56,0.00,,---,0.00,VWS V14.01,2013-05-01 06:32:00,
2013-05-01 02:37:00,44.7,30.0,30.33,SE,138,2.0,3.0,56,0.00,,---,0.00,VWS V14.01,2013-05-01 06:37:00,
2013-05-01 02:42:00,44.7,30.0,30.32,ESE,105,1.0,3.0,56,0.00,,---,0.00,VWS V14.01,2013-05-01 06:42:00,
2013-05-01 02:47:00,44.5,30.2,30.32,ESE,116,3.0,3.0,57,0.00,,---,0.00,VWS V14.01,2013-05-01 06:47:00,
2013-05-01 02:52:00,44.4,30.1,30.33,East,86,0.0,3.0,57,0.00,,---,0.00,VWS V14.01,2013-05-01 06:52:00,
2013-05-01 02:57:00,44.2,30.0,30.33,East,86,0.0,1.0,57,0.00,,---,0.00,VWS V14.01,2013-05-01 06:57:00,
2013-05-01 03:02:00,43.7,30.3,30.33,NW,310,1.0,2.0,59,0.00,,---,0.00,VWS V14.01,2013-05-01 07:02:00,
2013-05-01 03:07:00,43.1,29.8,30.34,NW,310,0.0,1.0,59,0.00,,---,0.00,VWS V14.01,2013-05-01 07:07:00,
2013-05-01 03:12:00,43.2,29.9,30.34,NW,310,0.0,0.0,59,0.00,,---,0.00,VWS V14.01,2013-05-01 07:12:00,
2013-05-01 03:17:00,43.2,29.9,30.34,NW,310,0.0,0.0,59,0.00,,---,0.00,VWS V14.01,2013-05-01 07:17:00,
2013-05-01 03:23:00,43.1,29.8,30.34,NW,311,0.0,0.0,59,0.00,,---,0.00,VWS V14.01,2013-05-01 07:23:00,
2013-05-01 03:28:00,43.1,29.8,30.34,NW,310,0.0,0.0,59,0.00,,---,0.00,VWS V14.01,2013-05-01 07:28:00,
2013-05-01 03:33:00,43.6,30.2,30.34,NNE,26,1.0,2.0,59,0.00,,---,0.00,VWS V14.01,2013-05-01 07:33:00,
2013-05-01 03:38:00,44.5,30.7,30.34,NNE,26,0.0,1.0,58,0.00,,---,0.00,VWS V14.01,2013-05-01 07:38:00,
2013-05-01 03:43:00,44.7,30.9,30.34,ENE,71,2.0,2.0,58,0.00,,---,0.00,VWS V14.01,2013-05-01 07:43:00,
2013-05-01 03:48:00,43.8,30.4,30.34,ENE,71,2.0,2.0,59,0.00,,---,0.00,VWS V14.01,2013-05-01 07:48:00,
2013-05-01 03:53:00,44.3,32.1,30.35,ENE,71,1.0,2.0,62,0.00,,---,0.00,VWS V14.01,2013-05-01 07:53:00,
2013-05-01 03:58:00,45.4,32.8,30.35,WNW,292,1.0,2.0,61,0.00,,---,0.00,VWS V14.01,2013-05-01 07:58:00,
2013-05-01 04:03:00,45.2,33.0,30.35,NW,314,0.0,1.0,62,0.00,,---,0.00,VWS V14.01,2013-05-01 08:03:00,
2013-05-01 04:08:00,45.0,32.8,30.35,NW,314,0.0,1.0,62,0.00,,---,0.00,VWS V14.01,2013-05-01 08:08:00,
2013-05-01 04:13:00,45.2,33.8,30.35,NW,314,0.0,0.0,64,0.00,,---,0.00,VWS V14.01,2013-05-01 08:13:00,
2013-05-01 04:18:00,45.4,34.3,30.35,NW,313,0.0,0.0,65,0.00,,---,0.00,VWS V14.01,2013-05-01 08:18:00,
2013-05-01 04:23:00,45.6,34.5,30.35,NW,313,0.0,0.0,65,0.00,,---,0.00,VWS V14.01,2013-05-01 08:23:00,
2013-05-01 04:28:00,44.8,33.8,30.35,NW,314,0.0,0.0,65,0.00,,---,0.00,VWS V14.01,2013-05-01 08:28:00,
2013-05-01 04:33:00,44.5,35.0,30.35,NW,313,0.0,1.0,69,0.00,,---,0.00,VWS V14.01,2013-05-01 08:33:00,
2013-05-01 04:38:00,44.6,34.3,30.35,NW,314,0.0,0.0,67,0.00,,---,0.00,VWS V14.01,2013-05-01 08:38:00,
2013-05-01 04:43:00,43.7,33.8,30.35,NW,314,0.0,1.0,68,0.00,,---,0.00,VWS V14.01,2013-05-01 08:43:00,
2013-05-01 04:48:00,43.2,34.8,30.35,NW,314,0.0,1.0,72,0.00,,---,0.00,VWS V14.01,2013-05-01 08:48:00,
2013-05-01 04:53:00,44.1,36.0,30.35,NW,313,0.0,1.0,73,0.00,,---,0.00,VWS V14.01,2013-05-01 08:53:00,
2013-05-01 04:58:00,44.4,36.0,30.36,NW,314,0.0,0.0,72,0.00,,---,0.00,VWS V14.01,2013-05-01 08:58:00,
2013-05-01 05:03:00,44.3,35.5,30.36,NW,314,0.0,1.0,71,0.00,,---,0.00,VWS V14.01,2013-05-01 09:03:00,
2013-05-01 05:09:00,43.3,35.2,30.36,NW,315,0.0,1.0,73,0.00,,---,0.00,VWS V14.01,2013-05-01 09:09:00,
2013-05-01 05:14:00,43.7,36.0,30.36,NW,315,0.0,1.0,74,0.00,,---,0.00,VWS V14.01,2013-05-01 09:14:00,
2013-05-01 05:19:00,43.3,35.2,30.36,NW,315,0.0,1.0,73,0.00,,---,0.00,VWS V14.01,2013-05-01 09:19:00,
2013-05-01 05:24:00,42.5,35.2,30.36,NW,315,0.0,1.0,75,0.00,,---,0.00,VWS V14.01,2013-05-01 09:24:00,
2013-05-01 05:29:00,42.3,35.3,30.36,NW,315,0.0,0.0,76,0.00,,---,0.00,VWS V14.01,2013-05-01 09:29:00,
2013-05-01 05:35:00,41.9,34.9,30.36,NW,315,0.0,0.0,76,0.00,,---,0.00,VWS V14.01,2013-05-01 09:35:00,
2013-05-01 05:40:00,41.6,34.9,30.36,NW,315,0.0,0.0,77,0.00,,---,0.00,VWS V14.01,2013-05-01 09:40:00,
2013-05-01 05:45:00,42.0,35.7,30.36,NW,315,0.0,0.0,78,0.00,,---,0.00,VWS V14.01,2013-05-01 09:45:00,
2013-05-01 05:50:00,42.6,35.9,30.36,NW,315,0.0,0.0,77,0.00,,---,0.00,VWS V14.01,2013-05-01 09:50:00,
2013-05-01 05:55:00,43.4,36.3,30.37,NW,322,0.0,2.0,76,0.00,,---,0.00,VWS V14.01,2013-05-01 09:55:00,
2013-05-01 06:00:00,44.9,37.1,30.36,NW,322,0.0,0.0,74,0.00,,---,0.00,VWS V14.01,2013-05-01 10:00:00,
2013-05-01 06:06:00,45.6,37.1,30.37,NW,320,0.0,1.0,72,0.00,,---,0.00,VWS V14.01,2013-05-01 10:06:00,
2013-05-01 06:12:00,46.3,37.4,30.37,NNE,23,2.0,3.0,71,0.00,,---,0.00,VWS V14.01,2013-05-01 10:12:00,
2013-05-01 06:17:00,47.6,37.6,30.37,NW,316,1.0,3.0,68,0.00,,---,0.00,VWS V14.01,2013-05-01 10:17:00,
2013-05-01 06:22:00,47.9,37.1,30.38,NW,322,2.0,3.0,66,0.00,,---,0.00,VWS V14.01,2013-05-01 10:22:00,
2013-05-01 06:27:00,46.5,36.9,30.38,NW,322,1.0,2.0,69,0.00,,---,0.00,VWS V14.01,2013-05-01 10:27:00,
2013-05-01 06:32:00,45.9,37.0,30.38,NW,322,0.0,2.0,71,0.00,,---,0.00,VWS V14.01,2013-05-01 10:32:00,
2013-05-01 06:37:00,46.6,37.7,30.38,NNW,344,0.0,3.0,71,0.00,,---,0.00,VWS V14.01,2013-05-01 10:37:00,
2013-05-01 06:42:00,47.5,38.2,30.38,NNW,344,1.0,3.0,70,0.00,,---,0.00,VWS V14.01,2013-05-01 10:42:00,
2013-05-01 06:47:00,49.0,38.9,30.39,North,358,1.0,5.0,68,0.00,,---,0.00,VWS V14.01,2013-05-01 10:47:00,
2013-05-01 06:53:00,49.8,39.3,30.39,NW,318,1.0,4.0,67,0.00,,---,0.00,VWS V14.01,2013-05-01 10:53:00,
2013-05-01 06:58:00,49.3,38.8,30.39,NW,305,1.0,3.0,67,0.00,,---,0.00,VWS V14.01,2013-05-01 10:58:00,
2013-05-01 07:03:00,48.7,39.0,30.39,NW,314,3.0,3.0,69,0.00,,---,0.00,VWS V14.01,2013-05-01 11:03:00,
2013-05-01 07:09:00,49.4,40.0,30.40,NW,324,3.0,4.0,70,0.00,,---,0.00,VWS V14.01,2013-05-01 11:09:00,
2013-05-01 07:14:00,50.4,39.9,30.40,NNE,15,4.0,5.0,67,0.00,,---,0.00,VWS V14.01,2013-05-01 11:14:00,
2013-05-01 07:19:00,51.2,39.8,30.40,NNE,27,2.0,5.0,65,0.00,,---,0.00,VWS V14.01,2013-05-01 11:19:00,
2013-05-01 07:24:00,51.7,39.9,30.40,NW,316,6.0,6.0,64,0.00,,---,0.00,VWS V14.01,2013-05-01 11:24:00,
2013-05-01 07:29:00,52.0,39.4,30.40,NW,322,4.0,6.0,62,0.00,,---,0.00,VWS V14.01,2013-05-01 11:29:00,
2013-05-01 07:34:00,52.4,40.6,30.40,WNW,287,2.0,4.0,64,0.00,,---,0.00,VWS V14.01,2013-05-01 11:34:00,
2013-05-01 07:40:00,53.0,39.9,30.41,NW,308,2.0,3.0,61,0.00,,---,0.00,VWS V14.01,2013-05-01 11:40:00,
2013-05-01 07:46:00,53.6,40.5,30.41,NW,310,4.0,7.0,61,0.00,,---,0.00,VWS V14.01,2013-05-01 11:46:00,
2013-05-01 07:51:00,53.8,39.8,30.41,NW,310,3.0,6.0,59,0.00,,---,0.00,VWS V14.01,2013-05-01 11:51:00,
2013-05-01 07:56:00,54.2,40.2,30.41,North,5,1.0,5.0,59,0.00,,---,0.00,VWS V14.01,2013-05-01 11:56:00,
2013-05-01 08:02:00,54.8,40.3,30.41,WNW,301,2.0,4.0,58,0.00,,---,0.00,VWS V14.01,2013-05-01 12:02:00,
2013-05-01 08:07:00,55.2,41.1,30.41,NW,316,2.0,6.0,59,0.00,,---,0.00,VWS V14.01,2013-05-01 12:07:00,
2013-05-01 08:13:00,55.7,40.7,30.41,NW,311,3.0,4.0,57,0.00,,---,0.00,VWS V14.01,2013-05-01 12:13:00,
2013-05-01 08:18:00,55.7,40.7,30.41,NNW,346,2.0,5.0,57,0.00,,---,0.00,VWS V14.01,2013-05-01 12:18:00,
2013-05-01 08:24:00,56.2,41.2,30.41,NW,315,4.0,6.0,57,0.00,,---,0.00,VWS V14.01,2013-05-01 12:24:00,
2013-05-01 08:30:00,56.6,41.6,30.42,NW,323,4.0,6.0,57,0.00,,---,0.00,VWS V14.01,2013-05-01 12:30:00,
2013-05-01 08:35:00,56.8,42.2,30.42,NW,316,1.0,5.0,58,0.00,,---,0.00,VWS V14.01,2013-05-01 12:35:00,
2013-05-01 08:40:00,57.2,41.2,30.42,NNE,33,3.0,7.0,55,0.00,,---,0.00,VWS V14.01,2013-05-01 12:40:00,
2013-05-01 08:45:00,57.4,40.9,30.42,NNW,347,3.0,6.0,54,0.00,,---,0.00,VWS V14.01,2013-05-01 12:45:00,
2013-05-01 08:50:00,57.6,41.6,30.42,North,9,3.0,6.0,55,0.00,,---,0.00,VWS V14.01,2013-05-01 12:50:00,
2013-05-01 08:56:00,57.9,41.4,30.42,NNW,346,4.0,5.0,54,0.00,,---,0.00,VWS V14.01,2013-05-01 12:56:00,
2013-05-01 09:02:00,58.1,42.0,30.42,NNE,25,5.0,8.0,55,0.00,,---,0.00,VWS V14.01,2013-05-01 13:02:00,
2013-05-01 09:07:00,58.4,42.3,30.42,NNE,33,5.0,6.0,55,0.00,,---,0.00,VWS V14.01,2013-05-01 13:07:00,
2013-05-01 09:12:00,58.5,42.4,30.42,ENE,63,7.0,8.0,55,0.00,,---,0.00,VWS V14.01,2013-05-01 13:12:00,
2013-05-01 09:17:00,58.6,42.0,30.42,ENE,76,4.0,7.0,54,0.00,,---,0.00,VWS V14.01,2013-05-01 13:17:00,
2013-05-01 09:23:00,59.1,43.4,30.42,ENE,69,6.0,6.0,56,0.00,,---,0.00,VWS V14.01,2013-05-01 13:23:00,
2013-05-01 09:28:00,59.2,42.1,30.42,NE,43,3.0,7.0,53,0.00,,---,0.00,VWS V14.01,2013-05-01 13:28:00,
2013-05-01 09:33:00,59.2,41.6,30.42,North,359,7.0,9.0,52,0.00,,---,0.00,VWS V14.01,2013-05-01 13:33:00,
2013-05-01 09:38:00,59.4,42.3,30.42,East,96,4.0,8.0,53,0.00,,---,0.00,VWS V14.01,2013-05-01 13:38:00,
2013-05-01 09:43:00,59.7,42.1,30.42,ESE,117,2.0,8.0,52,0.00,,---,0.00,VWS V14.01,2013-05-01 13:43:00,
2013-05-01 09:49:00,60.4,41.2,30.42,ESE,105,5.0,8.0,49,0.00,,---,0.00,VWS V14.01,2013-05-01 13:49:00,
2013-05-01 09:54:00,60.7,41.5,30.42,SE,128,2.0,6.0,49,0.00,,---,0.00,VWS V14.01,2013-05-01 13:54:00,
2013-05-01 09:59:00,60.8,40.5,30.42,ESE,108,4.0,6.0,47,0.00,,---,0.00,VWS V14.01,2013-05-01 13:59:00,
2013-05-01 10:04:00,60.7,40.9,30.42,NNE,33,5.0,7.0,48,0.00,,---,0.00,VWS V14.01,2013-05-01 14:04:00,
2013-05-01 10:09:00,60.5,39.6,30.42,NE,35,1.0,8.0,46,0.00,,---,0.00,VWS V14.01,2013-05-01 14:09:00,
2013-05-01 10:14:00,60.8,38.8,30.42,SSE,156,6.0,8.0,44,0.00,,---,0.00,VWS V14.01,2013-05-01 14:14:00,
2013-05-01 10:19:00,61.5,40.0,30.42,East,90,6.0,8.0,45,0.00,,---,0.00,VWS V14.01,2013-05-01 14:19:00,
2013-05-01 10:24:00,61.6,40.1,30.42,ESE,117,4.0,8.0,45,0.00,,---,0.00,VWS V14.01,2013-05-01 14:24:00,
2013-05-01 10:29:00,61.6,37.1,30.42,ESE,103,7.0,10.0,40,0.00,,---,0.00,VWS V14.01,2013-05-01 14:29:00,
2013-05-01 10:35:00,61.3,40.4,30.42,East,81,7.0,10.0,46,0.00,,---,0.00,VWS V14.01,2013-05-01 14:35:00,
2013-05-01 10:40:00,60.9,36.4,30.42,SE,146,8.0,10.0,40,0.00,,---,0.00,VWS V14.01,2013-05-01 14:40:00,
2013-05-01 10:46:00,61.0,39.0,30.42,ENE,73,4.0,9.0,44,0.00,,---,0.00,VWS V14.01,2013-05-01 14:46:00,
2013-05-01 10:51:00,61.7,39.6,30.42,SE,128,2.0,8.0,44,0.00,,---,0.00,VWS V14.01,2013-05-01 14:51:00,
2013-05-01 10:57:00,62.4,37.8,30.42,ESE,108,8.0,12.0,40,0.00,,---,0.00,VWS V14.01,2013-05-01 14:57:00,
2013-05-01 11:02:00,61.8,37.2,30.42,SE,133,6.0,11.0,40,0.00,,---,0.00,VWS V14.01,2013-05-01 15:02:00,
2013-05-01 11:07:00,61.6,38.3,30.42,East,87,7.0,11.0,42,0.00,,---,0.00,VWS V14.01,2013-05-01 15:07:00,
2013-05-01 11:12:00,61.7,38.4,30.42,ESE,105,4.0,12.0,42,0.00,,---,0.00,VWS V14.01,2013-05-01 15:12:00,
2013-05-01 11:18:00,61.8,37.9,30.42,SSE,148,5.0,10.0,41,0.00,,---,0.00,VWS V14.01,2013-05-01 15:18:00,
2013-05-01 11:23:00,61.8,36.6,30.41,South,169,9.0,11.0,39,0.00,,---,0.00,VWS V14.01,2013-05-01 15:23:00,
2013-05-01 11:28:00,62.0,35.5,30.41,ESE,118,4.0,9.0,37,0.00,,---,0.00,VWS V14.01,2013-05-01 15:28:00,
2013-05-01 11:33:00,62.2,37.0,30.41,East,99,4.0,10.0,39,0.00,,---,0.00,VWS V14.01,2013-05-01 15:33:00,
2013-05-01 11:38:00,62.3,35.7,30.41,East,85,5.0,10.0,37,0.00,,---,0.00,VWS V14.01,2013-05-01 15:38:00,
2013-05-01 11:43:00,62.7,35.4,30.41,SE,129,5.0,9.0,36,0.00,,---,0.00,VWS V14.01,2013-05-01 15:43:00,
2013-05-01 11:48:00,62.9,35.6,30.41,SE,136,5.0,10.0,36,0.00,,---,0.00,VWS V14.01,2013-05-01 15:48:00,
2013-05-01 11:53:00,62.9,35.6,30.41,SE,131,2.0,5.0,36,0.00,,---,0.00,VWS V14.01,2013-05-01 15:53:00,
2013-05-01 11:58:00,63.8,36.4,30.41,South,172,6.0,8.0,36,0.00,,---,0.00,VWS V14.01,2013-05-01 15:58:00,
2013-05-01 12:03:00,64.1,37.3,30.40,SE,131,7.0,11.0,37,0.00,,---,0.00,VWS V14.01,2013-05-01 16:03:00,
2013-05-01 12:08:00,64.5,36.3,30.40,ESE,117,7.0,17.0,35,0.00,,---,0.00,VWS V14.01,2013-05-01 16:08:00,
2013-05-01 12:13:00,63.8,34.9,30.40,South,172,6.0,14.0,34,0.00,,---,0.00,VWS V14.01,2013-05-01 16:13:00,
2013-05-01 12:18:00,64.0,36.5,30.40,SSE,160,2.0,10.0,36,0.00,,---,0.00,VWS V14.01,2013-05-01 16:18:00,
2013-05-01 12:23:00,64.4,35.5,30.40,East,96,1.0,8.0,34,0.00,,---,0.00,VWS V14.01,2013-05-01 16:23:00,
2013-05-01 12:28:00,64.3,36.8,30.39,ESE,113,11.0,12.0,36,0.00,,---,0.00,VWS V14.01,2013-05-01 16:28:00,
2013-05-01 12:33:00,64.5,36.3,30.39,South,179,6.0,11.0,35,0.00,,---,0.00,VWS V14.01,2013-05-01 16:33:00,
2013-05-01 12:38:00,65.0,34.5,30.39,East,99,5.0,11.0,32,0.00,,---,0.00,VWS V14.01,2013-05-01 16:38:00,
2013-05-01 12:44:00,64.6,34.9,30.39,SSW,193,6.0,12.0,33,0.00,,---,0.00,VWS V14.01,2013-05-01 16:44:00,
2013-05-01 12:49:00,65.0,36.7,30.39,East,94,10.0,12.0,35,0.00,,---,0.00,VWS V14.01,2013-05-01 16:49:00,
2013-05-01 12:54:00,64.6,34.9,30.39,SSE,148,10.0,13.0,33,0.00,,---,0.00,VWS V14.01,2013-05-01 16:54:00,
2013-05-01 12:59:00,65.0,36.7,30.39,SE,132,7.0,10.0,35,0.00,,---,0.00,VWS V14.01,2013-05-01 16:59:00,
2013-05-01 13:04:00,65.5,34.1,30.39,ESE,117,7.0,12.0,31,0.00,,---,0.00,VWS V14.01,2013-05-01 17:04:00,
2013-05-01 13:09:00,65.1,33.7,30.39,ESE,105,9.0,11.0,31,0.00,,---,0.00,VWS V14.01,2013-05-01 17:09:00,
2013-05-01 13:14:00,65.6,33.4,30.39,SW,232,1.0,9.0,30,0.00,,---,0.00,VWS V14.01,2013-05-01 17:14:00,
2013-05-01 13:19:00,66.2,35.5,30.39,ESE,112,11.0,11.0,32,0.00,,---,0.00,VWS V14.01,2013-05-01 17:19:00,
2013-05-01 13:24:00,65.8,33.5,30.40,ESE,110,4.0,12.0,30,0.00,,---,0.00,VWS V14.01,2013-05-01 17:24:00,
2013-05-01 13:29:00,65.5,33.3,30.40,SE,132,4.0,9.0,30,0.00,,---,0.00,VWS V14.01,2013-05-01 17:29:00,
2013-05-01 13:34:00,66.0,34.5,30.40,SW,226,3.0,9.0,31,0.00,,---,0.00,VWS V14.01,2013-05-01 17:34:00,
2013-05-01 13:39:00,66.4,33.2,30.39,ESE,116,5.0,13.0,29,0.00,,---,0.00,VWS V14.01,2013-05-01 17:39:00,
2013-05-01 13:44:00,66.2,33.0,30.39,ENE,68,4.0,12.0,29,0.00,,---,0.00,VWS V14.01,2013-05-01 17:44:00,
2013-05-01 13:49:00,66.3,31.4,30.39,ESE,108,6.0,10.0,27,0.00,,---,0.00,VWS V14.01,2013-05-01 17:49:00,
2013-05-01 13:54:00,66.1,33.0,30.39,NNE,18,3.0,11.0,29,0.00,,---,0.00,VWS V14.01,2013-05-01 17:54:00,
2013-05-01 14:00:00,66.0,31.1,30.38,ESE,122,5.0,13.0,27,0.00,,---,0.00,VWS V14.01,2013-05-01 18:00:00,
2013-05-01 14:05:00,66.7,34.3,30.39,SE,131,8.0,11.0,30,0.00,,---,0.00,VWS V14.01,2013-05-01 18:05:00,
2013-05-01 14:10:00,66.7,32.6,30.38,East,88,6.0,11.0,28,0.00,,---,0.00,VWS V14.01,2013-05-01 18:10:00,
2013-05-01 14:15:00,67.1,31.1,30.38,SE,145,4.0,14.0,26,0.00,,---,0.00,VWS V14.01,2013-05-01 18:15:00,
2013-05-01 14:20:00,67.0,30.0,30.38,SSE,158,10.0,14.0,25,0.00,,---,0.00,VWS V14.01,2013-05-01 18:20:00,
2013-05-01 14:25:00,67.0,31.0,30.38,SE,146,8.0,14.0,26,0.00,,---,0.00,VWS V14.01,2013-05-01 18:25:00,
2013-05-01 14:30:00,67.1,30.1,30.38,ESE,103,8.0,11.0,25,0.00,,---,0.00,VWS V14.01,2013-05-01 18:30:00,
2013-05-01 14:35:00,66.8,32.7,30.38,SSE,167,9.0,12.0,28,0.00,,---,0.00,VWS V14.01,2013-05-01 18:35:00,
2013-05-01 14:40:00,66.8,29.9,30.38,SSE,149,7.0,14.0,25,0.00,,---,0.00,VWS V14.01,2013-05-01 18:40:00,
2013-05-01 14:45:00,66.8,30.8,30.38,ESE,105,9.0,11.0,26,0.00,,---,0.00,VWS V14.01,2013-05-01 18:45:00,
2013-05-01 14:50:00,66.8,31.8,30.38,SE,144,5.0,10.0,27,0.00,,---,0.00,VWS V14.01,2013-05-01 18:50:00,
2013-05-01 14:55:00,67.6,33.4,30.38,SSE,149,6.0,9.0,28,0.00,,---,0.00,VWS V14.01,2013-05-01 18:55:00,
2013-05-01 15:00:00,67.8,29.7,30.38,ESE,108,6.0,12.0,24,0.00,,---,0.00,VWS V14.01,2013-05-01 19:00:00,
2013-05-01 15:05:00,68.0,31.9,30.37,SE,129,4.0,11.0,26,0.00,,---,0.00,VWS V14.01,2013-05-01 19:05:00,
2013-05-01 15:10:00,67.9,30.8,30.38,East,85,9.0,14.0,25,0.00,,---,0.00,VWS V14.01,2013-05-01 19:10:00,
2013-05-01 15:16:00,67.7,33.5,30.37,ESE,112,9.0,13.0,28,0.00,,---,0.00,VWS V14.01,2013-05-01 19:16:00,
2013-05-01 15:21:00,67.6,30.6,30.37,NE,49,11.0,13.0,25,0.00,,---,0.00,VWS V14.01,2013-05-01 19:21:00,
2013-05-01 15:26:00,67.7,29.6,30.37,East,100,10.0,16.0,24,0.00,,---,0.00,VWS V14.01,2013-05-01 19:26:00,
2013-05-01 15:31:00,67.7,32.5,30.37,SE,129,5.0,13.0,27,0.00,,---,0.00,VWS V14.01,2013-05-01 19:31:00,
2013-05-01 15:37:00,68.1,32.0,30.36,ESE,113,7.0,10.0,26,0.00,,---,0.00,VWS V14.01,2013-05-01 19:37:00,
2013-05-01 15:42:00,68.1,30.0,30.36,SE,141,6.0,10.0,24,0.00,,---,0.00,VWS V14.01,2013-05-01 19:42:00,
2013-05-01 15:48:00,68.5,31.3,30.36,SE,136,6.0,16.0,25,0.00,,---,0.00,VWS V14.01,2013-05-01 19:48:00,
2013-05-01 15:53:00,68.5,29.3,30.36,SE,134,7.0,11.0,23,0.00,,---,0.00,VWS V14.01,2013-05-01 19:53:00,
2013-05-01 15:58:00,68.8,31.6,30.36,SSE,153,8.0,11.0,25,0.00,,---,0.00,VWS V14.01,2013-05-01 19:58:00,
2013-05-01 16:03:00,68.7,31.5,30.36,South,187,5.0,14.0,25,0.00,,---,0.00,VWS V14.01,2013-05-01 20:03:00,
2013-05-01 16:08:00,69.0,30.7,30.36,SSW,197,12.0,14.0,24,0.00,,---,0.00,VWS V14.01,2013-05-01 20:08:00,
2013-05-01 16:13:00,69.0,31.8,30.36,SSW,203,7.0,14.0,25,0.00,,---,0.00,VWS V14.01,2013-05-01 20:13:00,
2013-05-01 16:18:00,69.4,31.1,30.36,SSW,203,5.0,14.0,24,0.00,,---,0.00,VWS V14.01,2013-05-01 20:18:00,
2013-05-01 16:23:00,69.0,29.7,30.37,SE,136,9.0,14.0,23,0.00,,---,0.00,VWS V14.01,2013-05-01 20:23:00,
2013-05-01 16:28:00,68.3,30.1,30.36,South,191,7.0,12.0,24,0.00,,---,0.00,VWS V14.01,2013-05-01 20:28:00,
2013-05-01 16:33:00,68.4,30.2,30.36,SE,141,5.0,9.0,24,0.00,,---,0.00,VWS V14.01,2013-05-01 20:33:00,
2013-05-01 16:38:00,68.4,30.2,30.36,East,88,7.0,13.0,24,0.00,,---,0.00,VWS V14.01,2013-05-01 20:38:00,
2013-05-01 16:43:00,68.6,30.4,30.36,SSE,155,7.0,10.0,24,0.00,,---,0.00,VWS V14.01,2013-05-01 20:43:00,
2013-05-01 16:48:00,68.4,30.2,30.36,SSW,193,8.0,12.0,24,0.00,,---,0.00,VWS V14.01,2013-05-01 20:48:00,
2013-05-01 16:53:00,68.6,28.3,30.36,South,188,8.0,17.0,22,0.00,,---,0.00,VWS V14.01,2013-05-01 20:53:00,
2013-05-01 16:59:00,68.7,30.5,30.36,SSW,197,8.0,13.0,24,0.00,,---,0.00,VWS V14.01,2013-05-01 20:59:00,
2013-05-01 17:04:00,68.8,29.5,30.37,SSE,161,6.0,11.0,23,0.00,,---,0.00,VWS V14.01,2013-05-01 21:04:00,
2013-05-01 17:09:00,68.9,29.6,30.37,SSW,200,13.0,15.0,23,0.00,,---,0.00,VWS V14.01,2013-05-01 21:09:00,
2013-05-01 17:14:00,68.6,29.4,30.37,ESE,116,8.0,15.0,23,0.00,,---,0.00,VWS V14.01,2013-05-01 21:14:00,
2013-05-01 17:19:00,68.5,28.2,30.37,SE,140,4.0,10.0,22,0.00,,---,0.00,VWS V14.01,2013-05-01 21:19:00,
2013-05-01 17:24:00,68.5,28.2,30.37,SE,127,7.0,11.0,22,0.00,,---,0.00,VWS V14.01,2013-05-01 21:24:00,
2013-05-01 17:29:00,68.3,29.1,30.37,SSE,159,4.0,10.0,23,0.00,,---,0.00,VWS V14.01,2013-05-01 21:29:00,
2013-05-01 17:34:00,68.9,29.6,30.37,SSE,150,9.0,9.0,23,0.00,,---,0.00,VWS V14.01,2013-05-01 21:34:00,
2013-05-01 17:39:00,68.9,28.5,30.37,South,190,8.0,12.0,22,0.00,,---,0.00,VWS V14.01,2013-05-01 21:39:00,
2013-05-01 17:44:00,68.6,28.3,30.37,South,181,6.0,11.0,22,0.00,,---,0.00,VWS V14.01,2013-05-01 21:44:00,
2013-05-01 17:49:00,68.6,29.4,30.37,SSE,164,7.0,9.0,23,0.00,,---,0.00,VWS V14.01,2013-05-01 21:49:00,
2013-05-01 17:54:00,68.6,28.3,30.37,SE,142,9.0,13.0,22,0.00,,---,0.00,VWS V14.01,2013-05-01 21:54:00,
2013-05-01 17:59:00,68.4,28.1,30.37,SSW,193,7.0,10.0,22,0.00,,---,0.00,VWS V14.01,2013-05-01 21:59:00,
2013-05-01 18:04:00,68.3,29.1,30.37,SSE,165,3.0,11.0,23,0.00,,---,0.00,VWS V14.01,2013-05-01 22:04:00,
2013-05-01 18:09:00,68.2,27.9,30.37,SE,134,5.0,10.0,22,0.00,,---,0.00,VWS V14.01,2013-05-01 22:09:00,
2013-05-01 18:14:00,68.3,30.1,30.37,SE,136,6.0,8.0,24,0.00,,---,0.00,VWS V14.01,2013-05-01 22:14:00,
2013-05-01 18:19:00,68.2,27.9,30.37,South,191,5.0,9.0,22,0.00,,---,0.00,VWS V14.01,2013-05-01 22:19:00,
2013-05-01 18:24:00,68.1,27.9,30.37,SSE,155,7.0,12.0,22,0.00,,---,0.00,VWS V14.01,2013-05-01 22:24:00,
2013-05-01 18:29:00,67.9,27.7,30.37,South,190,4.0,8.0,22,0.00,,---,0.00,VWS V14.01,2013-05-01 22:29:00,
2013-05-01 18:34:00,67.9,28.8,30.37,SSE,156,6.0,7.0,23,0.00,,---,0.00,VWS V14.01,2013-05-01 22:34:00,
2013-05-01 18:39:00,67.6,28.5,30.37,SE,142,5.0,11.0,23,0.00,,---,0.00,VWS V14.01,2013-05-01 22:39:00,
2013-05-01 18:44:00,67.4,28.4,30.38,SSE,156,6.0,10.0,23,0.00,,---,0.00,VWS V14.01,2013-05-01 22:44:00,
2013-05-01 18:49:00,67.2,28.2,30.38,South,188,4.0,8.0,23,0.00,,---,0.00,VWS V14.01,2013-05-01 22:49:00,
2013-05-01 18:54:00,67.2,29.2,30.38,SSE,162,8.0,9.0,24,0.00,,---,0.00,VWS V14.01,2013-05-01 22:54:00,
2013-05-01 18:59:00,67.0,29.0,30.38,SSE,149,7.0,10.0,24,0.00,,---,0.00,VWS V14.01,2013-05-01 22:59:00,
2013-05-01 19:04:00,66.8,28.9,30.38,South,184,4.0,9.0,24,0.00,,---,0.00,VWS V14.01,2013-05-01 23:04:00,
2013-05-01 19:09:00,66.6,28.7,30.38,South,190,4.0,8.0,24,0.00,,---,0.00,VWS V14.01,2013-05-01 23:09:00,
2013-05-01 19:14:00,66.4,29.5,30.38,SSE,152,4.0,8.0,25,0.00,,---,0.00,VWS V14.01,2013-05-01 23:14:00,
2013-05-01 19:19:00,66.2,28.4,30.38,SSE,165,4.0,8.0,24,0.00,,---,0.00,VWS V14.01,2013-05-01 23:19:00,
2013-05-01 19:24:00,66.0,28.2,30.38,SE,143,4.0,6.0,24,0.00,,---,0.00,VWS V14.01,2013-05-01 23:24:00,
2013-05-01 19:29:00,65.6,28.9,30.38,SSE,160,2.0,5.0,25,0.00,,---,0.00,VWS V14.01,2013-05-01 23:29:00,
2013-05-01 19:34:00,65.2,28.5,30.38,SSE,168,4.0,4.0,25,0.00,,---,0.00,VWS V14.01,2013-05-01 23:34:00,
2013-05-01 19:40:00,64.8,28.2,30.38,SSW,192,4.0,6.0,25,0.00,,---,0.00,VWS V14.01,2013-05-01 23:40:00,
2013-05-01 19:45:00,64.4,28.8,30.38,South,172,3.0,7.0,26,0.00,,---,0.00,VWS V14.01,2013-05-01 23:45:00,
2013-05-01 19:50:00,63.7,28.2,30.38,South,188,4.0,5.0,26,0.00,,---,0.00,VWS V14.01,2013-05-01 23:50:00,
2013-05-01 19:55:00,62.9,28.4,30.39,South,190,3.0,5.0,27,0.00,,---,0.00,VWS V14.01,2013-05-01 23:55:00,
2013-05-01 20:00:00,62.3,28.8,30.39,SSE,158,2.0,4.0,28,0.00,,---,0.00,VWS V14.01,2013-05-02 00:00:00,
2013-05-01 20:05:00,61.6,28.2,30.39,SE,131,1.0,3.0,28,0.00,,---,0.00,VWS V14.01,2013-05-02 00:05:00,
2013-05-01 20:10:00,61.2,28.7,30.39,SE,142,2.0,3.0,29,0.00,,---,0.00,VWS V14.01,2013-05-02 00:10:00,
2013-05-01 20:15:00,61.0,28.5,30.39,SE,140,2.0,4.0,29,0.00,,---,0.00,VWS V14.01,2013-05-02 00:15:00,
2013-05-01 20:20:00,60.8,28.4,30.39,SSE,158,3.0,4.0,29,0.00,,---,0.00,VWS V14.01,2013-05-02 00:20:00,
2013-05-01 20:25:00,60.5,28.1,30.39,SSE,156,2.0,4.0,29,0.00,,---,0.00,VWS V14.01,2013-05-02 00:25:00,
2013-05-01 20:30:00,60.3,28.8,30.39,SE,146,3.0,5.0,30,0.00,,---,0.00,VWS V14.01,2013-05-02 00:30:00,
2013-05-01 20:35:00,60.1,28.6,30.39,SSE,149,2.0,5.0,30,0.00,,---,0.00,VWS V14.01,2013-05-02 00:35:00,
2013-05-01 20:40:00,59.9,28.4,30.39,South,180,5.0,6.0,30,0.00,,---,0.00,VWS V14.01,2013-05-02 00:40:00,
2013-05-01 20:45:00,59.9,28.4,30.39,SE,128,3.0,4.0,30,0.00,,---,0.00,VWS V14.01,2013-05-02 00:45:00,
2013-05-01 20:50:00,59.7,29.0,30.39,SSE,149,3.0,4.0,31,0.00,,---,0.00,VWS V14.01,2013-05-02 00:50:00,
2013-05-01 20:55:00,59.6,29.0,30.39,SE,142,2.0,5.0,31,0.00,,---,0.00,VWS V14.01,2013-05-02 00:55:00,
2013-05-01 21:00:00,59.3,28.7,30.39,SE,144,3.0,5.0,31,0.00,,---,0.00,VWS V14.01,2013-05-02 01:00:00,
2013-05-01 21:05:00,59.1,29.3,30.40,SSE,158,3.0,6.0,32,0.00,,---,0.00,VWS V14.01,2013-05-02 01:05:00,
2013-05-01 21:10:00,59.1,29.3,30.40,ESE,112,6.0,8.0,32,0.00,,---,0.00,VWS V14.01,2013-05-02 01:10:00,
2013-05-01 21:15:00,58.8,30.5,30.40,SSE,149,4.0,6.0,34,0.00,,---,0.00,VWS V14.01,2013-05-02 01:15:00,
2013-05-01 21:20:00,58.4,31.6,30.40,SE,145,6.0,7.0,36,0.00,,---,0.00,VWS V14.01,2013-05-02 01:20:00,
2013-05-01 21:26:00,58.0,33.2,30.41,SSE,148,3.0,7.0,39,0.00,,---,0.00,VWS V14.01,2013-05-02 01:26:00,
2013-05-01 21:31:00,57.5,34.0,30.40,SSE,149,5.0,7.0,41,0.00,,---,0.00,VWS V14.01,2013-05-02 01:31:00,
2013-05-01 21:36:00,57.1,34.2,30.40,SE,131,4.0,7.0,42,0.00,,---,0.00,VWS V14.01,2013-05-02 01:36:00,
2013-05-01 21:41:00,56.7,34.5,30.41,SE,131,3.0,7.0,43,0.00,,---,0.00,VWS V14.01,2013-05-02 01:41:00,
2013-05-01 21:46:00,56.3,34.7,30.41,SSE,149,4.0,6.0,44,0.00,,---,0.00,VWS V14.01,2013-05-02 01:46:00,
2013-05-01 21:51:00,56.0,35.5,30.41,SE,139,5.0,7.0,46,0.00,,---,0.00,VWS V14.01,2013-05-02 01:51:00,
2013-05-01 21:56:00,55.6,35.7,30.41,SSE,150,4.0,7.0,47,0.00,,---,0.00,VWS V14.01,2013-05-02 01:56:00,
2013-05-01 22:01:00,55.3,36.0,30.41,SE,138,4.0,6.0,48,0.00,,---,0.00,VWS V14.01,2013-05-02 02:01:00,
2013-05-01 22:06:00,55.0,36.2,30.42,SE,128,4.0,6.0,49,0.00,,---,0.00,VWS V14.01,2013-05-02 02:06:00,
2013-05-01 22:11:00,54.8,36.5,30.42,ESE,115,4.0,6.0,50,0.00,,---,0.00,VWS V14.01,2013-05-02 02:11:00,
2013-05-01 22:16:00,54.4,36.7,30.42,SSE,155,4.0,5.0,51,0.00,,---,0.00,VWS V14.01,2013-05-02 02:16:00,
2013-05-01 22:21:00,54.1,36.9,30.42,SE,139,4.0,6.0,52,0.00,,---,0.00,VWS V14.01,2013-05-02 02:21:00,
2013-05-01 22:26:00,53.9,36.7,30.42,SE,128,5.0,5.0,52,0.00,,---,0.00,VWS V14.01,2013-05-02 02:26:00,
2013-05-01 22:31:00,53.9,37.2,30.42,ESE,117,3.0,7.0,53,0.00,,---,0.00,VWS V14.01,2013-05-02 02:31:00,
2013-05-01 22:36:00,53.7,37.0,30.42,SE,138,2.0,6.0,53,0.00,,---,0.00,VWS V14.01,2013-05-02 02:36:00,
2013-05-01 22:41:00,53.4,37.2,30.42,ESE,119,2.0,6.0,54,0.00,,---,0.00,VWS V14.01,2013-05-02 02:41:00,
2013-05-01 22:46:00,53.4,37.2,30.42,South,169,5.0,8.0,54,0.00,,---,0.00,VWS V14.01,2013-05-02 02:46:00,
2013-05-01 22:51:00,53.3,37.1,30.42,ESE,117,3.0,9.0,54,0.00,,---,0.00,VWS V14.01,2013-05-02 02:51:00,
2013-05-01 22:56:00,53.2,37.0,30.42,SE,127,3.0,7.0,54,0.00,,---,0.00,VWS V14.01,2013-05-02 02:56:00,
2013-05-01 23:01:00,53.0,37.3,30.42,SE,142,3.0,7.0,55,0.00,,---,0.00,VWS V14.01,2013-05-02 03:01:00,
2013-05-01 23:06:00,52.8,37.1,30.42,SE,142,3.0,6.0,55,0.00,,---,0.00,VWS V14.01,2013-05-02 03:06:00,
2013-05-01 23:11:00,52.5,37.3,30.42,SE,131,4.0,6.0,56,0.00,,---,0.00,VWS V14.01,2013-05-02 03:11:00,
2013-05-01 23:16:00,52.5,37.3,30.42,SSE,149,4.0,6.0,56,0.00,,---,0.00,VWS V14.01,2013-05-02 03:16:00,
2013-05-01 23:21:00,52.1,37.3,30.42,ESE,121,3.0,5.0,57,0.00,,---,0.00,VWS V14.01,2013-05-02 03:21:00,
2013-05-01 23:26:00,51.8,37.1,30.42,SE,132,3.0,4.0,57,0.00,,---,0.00,VWS V14.01,2013-05-02 03:26:00,
2013-05-01 23:31:00,51.7,37.4,30.42,SE,145,3.0,4.0,58,0.00,,---,0.00,VWS V14.01,2013-05-02 03:31:00,
2013-05-01 23:36:00,51.8,37.5,30.42,SSE,153,4.0,7.0,58,0.00,,---,0.00,VWS V14.01,2013-05-02 03:36:00,
2013-05-01 23:41:00,51.5,37.7,30.41,SE,129,2.0,4.0,59,0.00,,---,0.00,VWS V14.01,2013-05-02 03:41:00,
2013-05-01 23:46:00,51.4,37.6,30.41,SSE,147,4.0,5.0,59,0.00,,---,0.00,VWS V14.01,2013-05-02 03:46:00,
2013-05-01 23:51:00,51.3,37.5,30.41,SE,132,4.0,5.0,59,0.00,,---,0.00,VWS V14.01,2013-05-02 03:51:00,
2013-05-01 23:56:00,51.3,37.9,30.41,SE,129,4.0,5.0,60,0.00,,---,0.00,VWS V14.01,2013-05-02 03:56:00,